Time;durP1;ratioP1;P1;durP2;ratioP2;P2;SDS_P1;SDS_P2;PMS_P1;PMS_P2;Temp;Humidity;BMP_temperature;BMP_pressure;BME280_temperature;BME280_humidity;BME280_pressure;Samples;Min_cycle;Max_cycle;Signal;HPM_P1;HPM_P2
2022/03/10 00:01:11;;;;;;;82.43;47.20;;;5.30;57.20;;;;;;5011940;28;20034;-67
2022/03/10 00:03:36;;;;;;;77.40;47.77;;;5.30;57.70;;;;;;5012262;28;20034;-67
2022/03/10 00:06:02;;;;;;;78.70;47.23;;;5.20;58.30;;;;;;5011821;28;20124;-67
2022/03/10 00:08:28;;;;;;;78.47;45.83;;;5.30;58.00;;;;;;5012093;28;20201;-66
2022/03/10 00:10:54;;;;;;;71.93;44.17;;;5.20;58.30;;;;;;5011886;28;20477;-67
2022/03/10 00:13:19;;;;;;;76.50;44.40;;;5.30;57.50;;;;;;5012221;28;20524;-67
2022/03/10 00:15:45;;;;;;;80.67;47.07;;;5.30;57.00;;;;;;5012151;28;20037;-67
2022/03/10 00:18:11;;;;;;;79.87;47.73;;;5.20;57.00;;;;;;5012356;28;20038;-67
2022/03/10 00:20:36;;;;;;;78.53;48.47;;;5.20;57.00;;;;;;5012110;28;20062;-67
2022/03/10 00:23:02;;;;;;;81.37;48.97;;;5.20;57.90;;;;;;5011976;28;20038;-68
2022/03/10 00:25:28;;;;;;;79.40;46.37;;;5.20;58.40;;;;;;5012278;28;20030;-67
2022/03/10 00:27:53;;;;;;;78.90;45.60;;;5.20;57.40;;;;;;5012669;28;20045;-67
2022/03/10 00:30:20;;;;;;;79.63;44.20;;;5.10;57.10;;;;;;5012702;28;20030;-67
2022/03/10 00:32:51;;;;;;;70.90;44.27;;;5.10;57.20;;;;;;5011974;28;20049;-67
2022/03/10 00:35:18;;;;;;;81.53;46.03;;;5.10;57.10;;;;;;5011782;28;20062;-67
2022/03/10 00:37:45;;;;;;;74.30;45.93;;;5.10;57.50;;;;;;5012143;28;20038;-67
2022/03/10 00:40:12;;;;;;;71.93;43.57;;;5.00;57.80;;;;;;5011962;28;20034;-67
2022/03/10 00:42:39;;;;;;;67.40;40.00;;;5.00;58.50;;;;;;5011845;28;20041;-67
2022/03/10 00:45:06;;;;;;;64.37;40.93;;;5.00;58.40;;;;;;5011765;28;20088;-67
2022/03/10 00:47:32;;;;;;;72.33;42.67;;;4.90;58.00;;;;;;5011886;28;20053;-67
2022/03/10 00:49:58;;;;;;;78.30;44.37;;;4.90;57.90;;;;;;5012023;28;20080;-67
2022/03/10 00:52:24;;;;;;;67.20;40.80;;;4.90;57.40;;;;;;5012295;28;20112;-67
2022/03/10 00:54:50;;;;;;;67.00;41.80;;;4.90;57.30;;;;;;5015129;28;20463;-67
2022/03/10 00:57:15;;;;;;;68.33;41.97;;;4.90;57.90;;;;;;5015194;28;20474;-67
2022/03/10 00:59:41;;;;;;;68.27;41.13;;;4.90;57.30;;;;;;5015290;28;20084;-67
2022/03/10 01:02:07;;;;;;;71.50;42.67;;;4.90;57.40;;;;;;5015164;28;20169;-67
2022/03/10 01:04:33;;;;;;;73.53;42.43;;;4.80;57.20;;;;;;5015215;28;20446;-67
2022/03/10 01:06:58;;;;;;;75.97;42.57;;;4.80;57.30;;;;;;5015178;28;20121;-67
2022/03/10 01:09:24;;;;;;;67.30;41.40;;;4.80;57.50;;;;;;5014799;28;20486;-67
2022/03/10 01:11:50;;;;;;;60.50;37.70;;;4.70;57.60;;;;;;5015233;28;20458;-67
2022/03/10 01:14:15;;;;;;;58.13;33.93;;;4.70;58.40;;;;;;5015385;28;20116;-67
2022/03/10 01:16:41;;;;;;;54.70;32.17;;;4.70;57.50;;;;;;5015033;28;20046;-67
2022/03/10 01:19:08;;;;;;;52.90;32.53;;;4.70;57.30;;;;;;5015255;28;20034;-67
2022/03/10 01:21:34;;;;;;;59.83;35.03;;;4.60;57.10;;;;;;5014931;28;20045;-67
2022/03/10 01:24:00;;;;;;;58.77;36.20;;;4.60;56.90;;;;;;5015043;28;20049;-67
2022/03/10 01:26:26;;;;;;;57.87;32.70;;;4.60;57.60;;;;;;5014541;28;20042;-67
2022/03/10 01:28:52;;;;;;;54.10;33.60;;;4.60;58.80;;;;;;5014472;28;20487;-67
2022/03/10 01:31:18;;;;;;;54.43;32.67;;;4.50;58.40;;;;;;5014537;28;20034;-67
2022/03/10 01:33:43;;;;;;;56.93;32.87;;;4.40;58.70;;;;;;5014711;28;20037;-67
2022/03/10 01:36:09;;;;;;;52.67;31.97;;;4.50;59.30;;;;;;5014520;28;20040;-66
2022/03/10 01:38:39;;;;;;;55.20;33.10;;;4.40;58.20;;;;;;5014677;28;20034;-67
2022/03/10 01:41:09;;;;;;;54.63;33.13;;;4.50;57.70;;;;;;5014888;28;20030;-67
2022/03/10 01:44:01;;;;;;;53.73;32.17;;;4.50;57.40;;;;;;5006882;28;20076;-66
2022/03/10 01:46:27;;;;;;;53.37;32.00;;;4.50;58.40;;;;;;5014546;28;20046;-67
2022/03/10 01:48:53;;;;;;;51.73;29.90;;;4.50;58.30;;;;;;5014428;28;20096;-67
2022/03/10 01:51:20;;;;;;;42.00;26.97;;;4.40;58.70;;;;;;5014638;28;20037;-68
2022/03/10 01:53:48;;;;;;;37.47;24.70;;;4.40;58.00;;;;;;5014243;28;20042;-67
2022/03/10 01:56:15;;;;;;;36.13;22.83;;;4.40;57.50;;;;;;5014200;28;20037;-67
2022/03/10 01:58:41;;;;;;;45.07;26.30;;;4.50;57.20;;;;;;5012253;28;20054;-67
2022/03/10 02:01:09;;;;;;;52.93;30.43;;;4.50;56.80;;;;;;5011492;28;20673;-67
2022/03/10 02:03:34;;;;;;;58.67;31.20;;;4.50;56.50;;;;;;5011471;28;20040;-67
2022/03/10 02:06:00;;;;;;;56.13;32.87;;;4.50;56.60;;;;;;5013116;28;20050;-67
2022/03/10 02:11:11;;;;;;;46.60;27.43;;;4.40;56.90;;;;;;5013940;28;20068;-67
2022/03/10 02:13:37;;;;;;;50.17;27.13;;;4.30;57.20;;;;;;5013508;28;20033;-67
2022/03/10 02:18:47;;;;;;;39.80;23.70;;;4.20;57.80;;;;;;5013283;28;20509;-67
2022/03/10 02:21:14;;;;;;;37.50;21.27;;;4.20;57.30;;;;;;5013152;28;20042;-67
2022/03/10 02:23:39;;;;;;;35.73;22.53;;;4.20;57.20;;;;;;5014375;28;20121;-67
2022/03/10 02:26:06;;;;;;;34.53;22.93;;;4.10;56.90;;;;;;5013519;28;20117;-67
2022/03/10 02:28:33;;;;;;;34.33;22.80;;;4.10;56.80;;;;;;5013267;28;20033;-67
2022/03/10 02:30:58;;;;;;;39.97;24.57;;;4.10;57.00;;;;;;5012861;28;20030;-68
2022/03/10 02:33:24;;;;;;;39.57;24.67;;;4.00;57.20;;;;;;5012151;28;20037;-67
2022/03/10 02:35:50;;;;;;;43.70;26.07;;;4.00;57.70;;;;;;5011598;28;20044;-67
2022/03/10 02:38:19;;;;;;;42.97;26.13;;;3.90;57.80;;;;;;5011778;28;20038;-67
2022/03/10 02:40:48;;;;;;;43.80;26.23;;;3.90;58.20;;;;;;5011607;28;20470;-67
2022/03/10 02:43:14;;;;;;;44.20;27.50;;;3.90;58.80;;;;;;5011233;28;20030;-67
2022/03/10 02:45:40;;;;;;;48.03;27.73;;;3.80;58.40;;;;;;5011325;28;20049;-67
2022/03/10 02:48:06;;;;;;;46.03;28.27;;;3.80;58.60;;;;;;5012313;28;20129;-67
2022/03/10 02:50:32;;;;;;;47.67;27.90;;;3.80;58.70;;;;;;5011992;28;20105;-67
2022/03/10 02:52:58;;;;;;;45.60;28.37;;;3.80;58.70;;;;;;5011494;28;20550;-67
2022/03/10 02:55:23;;;;;;;42.70;26.53;;;3.80;58.60;;;;;;5012783;28;20423;-67
2022/03/10 02:57:50;;;;;;;43.27;27.07;;;3.70;58.70;;;;;;5010944;28;20029;-67
2022/03/10 03:00:17;;;;;;;45.13;27.93;;;3.70;58.70;;;;;;5011101;28;20045;-67
2022/03/10 03:02:44;;;;;;;51.23;27.67;;;3.70;58.70;;;;;;5011189;28;20470;-67
2022/03/10 03:05:14;;;;;;;47.20;27.87;;;3.70;59.00;;;;;;5011139;28;20042;-68
2022/03/10 03:07:41;;;;;;;44.53;27.40;;;3.70;59.00;;;;;;5011179;28;20044;-67
2022/03/10 03:10:07;;;;;;;46.60;27.63;;;3.60;59.10;;;;;;5012362;28;20041;-67
2022/03/10 03:12:34;;;;;;;47.90;28.83;;;3.60;59.30;;;;;;5010646;28;20124;-67
2022/03/10 03:15:00;;;;;;;47.87;27.57;;;3.60;59.40;;;;;;5010315;28;20030;-67
2022/03/10 03:17:26;;;;;;;45.40;28.03;;;3.60;59.30;;;;;;5010895;28;20038;-67
2022/03/10 03:19:53;;;;;;;44.67;26.97;;;3.60;59.10;;;;;;5010480;28;20030;-67
2022/03/10 03:22:19;;;;;;;45.53;26.13;;;3.50;59.30;;;;;;5010434;28;20065;-67
2022/03/10 03:24:45;;;;;;;54.37;26.07;;;3.60;59.40;;;;;;5010337;28;20104;-67
2022/03/10 03:27:12;;;;;;;53.97;27.13;;;3.50;59.60;;;;;;5012978;28;20046;-67
2022/03/10 03:29:37;;;;;;;42.47;26.33;;;3.50;59.60;;;;;;5013356;28;20390;-67
2022/03/10 03:32:04;;;;;;;50.33;28.67;;;3.50;59.60;;;;;;5013603;28;20044;-67
2022/03/10 03:34:30;;;;;;;46.50;26.70;;;3.60;59.70;;;;;;5013346;28;20040;-67
2022/03/10 03:36:55;;;;;;;43.37;26.23;;;3.60;59.30;;;;;;5013199;28;20038;-67
2022/03/10 03:39:21;;;;;;;49.23;26.00;;;3.60;59.00;;;;;;5013422;28;20062;-67
2022/03/10 03:41:47;;;;;;;41.90;25.90;;;3.60;58.80;;;;;;5013549;28;20044;-67
2022/03/10 03:44:13;;;;;;;48.13;26.60;;;3.60;58.70;;;;;;5013406;28;20037;-67
2022/03/10 03:46:39;;;;;;;40.17;25.47;;;3.50;58.70;;;;;;5013351;28;20042;-67
2022/03/10 03:49:05;;;;;;;43.40;24.13;;;3.50;58.60;;;;;;5013015;28;20054;-66
2022/03/10 03:51:31;;;;;;;41.90;23.57;;;3.50;58.80;;;;;;5013125;28;20061;-67
2022/03/10 03:53:57;;;;;;;34.93;22.57;;;3.40;59.00;;;;;;5012649;28;20029;-67
2022/03/10 03:56:23;;;;;;;39.93;23.30;;;3.40;59.70;;;;;;5012433;28;20029;-67
2022/03/10 03:58:49;;;;;;;39.80;21.30;;;3.40;59.90;;;;;;5012552;28;20038;-67
2022/03/10 04:01:15;;;;;;;35.73;22.17;;;3.40;59.70;;;;;;5011883;28;20034;-67
2022/03/10 04:03:42;;;;;;;38.40;21.47;;;3.40;59.10;;;;;;5012617;28;20387;-67
2022/03/10 04:06:08;;;;;;;33.17;19.47;;;3.40;58.70;;;;;;5011994;28;20030;-67
2022/03/10 04:08:34;;;;;;;29.07;18.23;;;3.30;58.60;;;;;;5011809;28;20042;-67
2022/03/10 04:11:00;;;;;;;33.33;17.93;;;3.40;58.60;;;;;;5012050;28;20076;-67
2022/03/10 04:13:26;;;;;;;25.13;16.50;;;3.40;58.30;;;;;;5011676;28;20543;-67
2022/03/10 04:15:52;;;;;;;27.00;17.43;;;3.50;57.70;;;;;;5011975;28;20034;-67
2022/03/10 04:18:18;;;;;;;25.67;16.83;;;3.50;57.40;;;;;;5012171;28;20375;-67
2022/03/10 04:20:44;;;;;;;27.40;16.50;;;3.60;57.00;;;;;;5011723;28;20077;-67
2022/03/10 04:23:11;;;;;;;38.30;19.53;;;3.60;56.90;;;;;;4994024;28;20668;-67
2022/03/10 04:25:37;;;;;;;35.37;21.67;;;3.60;56.80;;;;;;5011845;28;20026;-67
2022/03/10 04:28:03;;;;;;;41.43;25.03;;;3.60;56.50;;;;;;5013381;28;20439;-67
2022/03/10 04:30:32;;;;;;;50.27;26.50;;;3.50;57.00;;;;;;5015698;28;20033;-67
2022/03/10 04:32:58;;;;;;;41.90;26.60;;;3.50;57.10;;;;;;5015780;28;20038;-67
2022/03/10 04:35:24;;;;;;;42.00;26.27;;;3.40;57.50;;;;;;5016085;28;20053;-67
2022/03/10 04:37:51;;;;;;;44.97;26.90;;;3.30;57.80;;;;;;5015035;28;20065;-67
2022/03/10 04:40:18;;;;;;;53.30;29.00;;;3.20;58.20;;;;;;5014967;28;20060;-67
2022/03/10 04:42:43;;;;;;;48.23;26.00;;;3.20;58.50;;;;;;5015024;28;20085;-66
2022/03/10 04:45:09;;;;;;;51.77;26.60;;;3.10;58.40;;;;;;5014977;28;20030;-68
2022/03/10 04:47:36;;;;;;;45.37;26.30;;;3.00;58.90;;;;;;5015616;28;20117;-67
2022/03/10 04:50:06;;;;;;;42.57;26.00;;;2.90;58.90;;;;;;5015093;28;20066;-67
2022/03/10 04:52:32;;;;;;;44.83;25.97;;;2.90;59.70;;;;;;5015246;28;20057;-67
2022/03/10 04:54:57;;;;;;;42.83;26.10;;;2.80;59.30;;;;;;5014694;28;20033;-67
2022/03/10 04:57:23;;;;;;;47.00;25.97;;;2.80;59.70;;;;;;5014781;28;20368;-67
2022/03/10 04:59:49;;;;;;;42.27;26.20;;;2.80;59.90;;;;;;5014292;28;20077;-68
2022/03/10 05:02:15;;;;;;;39.03;25.10;;;2.70;59.80;;;;;;5015978;28;20034;-67
2022/03/10 05:04:41;;;;;;;44.40;26.37;;;2.70;60.30;;;;;;5014682;28;20041;-67
2022/03/10 05:07:07;;;;;;;46.57;26.23;;;2.60;60.40;;;;;;5015480;28;20486;-67
2022/03/10 05:09:33;;;;;;;41.87;26.27;;;2.60;60.50;;;;;;5006842;28;20038;-67
2022/03/10 05:11:58;;;;;;;48.97;25.50;;;2.50;60.70;;;;;;5014793;28;20430;-67
2022/03/10 05:14:24;;;;;;;43.77;26.23;;;2.50;60.80;;;;;;5014530;28;20474;-67
2022/03/10 05:16:51;;;;;;;50.23;26.57;;;2.50;60.90;;;;;;5014856;28;20493;-67
2022/03/10 05:19:17;;;;;;;49.07;26.77;;;2.50;61.00;;;;;;5014897;28;20045;-67
2022/03/10 05:21:43;;;;;;;46.20;26.00;;;2.50;61.20;;;;;;5014518;28;20049;-67
2022/03/10 05:24:09;;;;;;;46.23;25.53;;;;;;;;;;5013801;28;20034;-68
2022/03/10 05:26:37;;;;;;;51.53;26.33;;;;;;;;;;5014919;28;20056;-67
2022/03/10 05:29:03;;;;;;;50.60;26.83;;;;;;;;;;5014804;28;20037;-67
2022/03/10 05:31:29;;;;;;;47.73;26.00;;;;;;;;;;5014566;28;20037;-67
2022/03/10 05:33:55;;;;;;;48.83;25.83;;;;;;;;;;5014911;28;20100;-67
2022/03/10 05:36:22;;;;;;;47.83;26.53;;;;;;;;;;5013467;28;20034;-67
2022/03/10 05:38:48;;;;;;;56.93;26.27;;;;;;;;;;5013981;28;20029;-67
2022/03/10 05:41:14;;;;;;;45.43;25.67;;;;;;;;;;5013679;28;20034;-67
2022/03/10 05:43:40;;;;;;;46.73;24.53;;;;;;;;;;5013975;28;20349;-67
2022/03/10 05:46:06;;;;;;;45.43;25.70;;;;;;;;;;5014156;28;20046;-68
2022/03/10 05:48:32;;;;;;;46.53;24.17;;;;;;;;;;5014422;28;20153;-67
2022/03/10 05:50:58;;;;;;;46.97;23.83;;;;;;;;;;5015154;28;20034;-67
2022/03/10 05:53:25;;;;;;;48.20;25.53;;;;;;;;;;5014919;28;20057;-67
2022/03/10 05:55:51;;;;;;;43.40;24.40;;;;;;;;;;5014251;28;20037;-67
2022/03/10 05:58:17;;;;;;;47.30;26.07;;;;;;;;;;5013383;28;20161;-67
2022/03/10 06:00:44;;;;;;;47.67;25.33;;;;;;;;;;5013682;28;20066;-67
2022/03/10 06:03:10;;;;;;;53.87;25.57;;;;;;;;;;5013760;28;20117;-67
2022/03/10 06:05:36;;;;;;;50.87;27.13;;;;;;;;;;5014293;28;20381;-67
2022/03/10 06:08:02;;;;;;;44.30;26.37;;;;;;;;;;5015038;28;20608;-67
2022/03/10 06:10:29;;;;;;;53.73;26.80;;;;;;;;;;5014837;28;20124;-67
2022/03/10 06:12:55;;;;;;;46.10;26.37;;;;;;;;;;5014525;28;20113;-67
2022/03/10 06:15:21;;;;;;;45.47;26.07;;;;;;;;;;5014906;28;20560;-66
2022/03/10 06:17:47;;;;;;;41.83;25.77;;;;;;;;;;5014720;28;20034;-70
2022/03/10 06:20:14;;;;;;;46.07;26.30;;;;;;;;;;5014322;28;20433;-67
2022/03/10 06:22:41;;;;;;;56.83;25.93;;;;;;;;;;5013074;28;20026;-67
2022/03/10 06:25:09;;;;;;;45.87;27.07;;;;;;;;;;5013937;28;20066;-67
2022/03/10 06:27:35;;;;;;;57.60;27.20;;;;;;;;;;5013873;28;20042;-70
2022/03/10 06:30:02;;;;;;;54.43;27.33;;;;;;;;;;5014165;28;20034;-68
2022/03/10 06:32:28;;;;;;;56.77;28.23;;;;;;;;;;5014518;28;20390;-67
2022/03/10 06:34:56;;;;;;;78.30;26.53;;;;;;;;;;5013880;28;20038;-67
2022/03/10 06:37:22;;;;;;;52.57;23.43;;;;;;;;;;5013954;28;20034;-67
2022/03/10 06:39:48;;;;;;;50.93;23.90;;;;;;;;;;5013776;28;20037;-67
2022/03/10 06:42:14;;;;;;;41.67;23.03;;;;;;;;;;5013791;28;20545;-66
2022/03/10 06:44:41;;;;;;;39.17;22.07;;;;;;;;;;5013818;28;20076;-66
2022/03/10 06:47:09;;;;;;;41.10;22.40;;;;;;;;;;5013124;28;20046;-67
2022/03/10 06:49:36;;;;;;;37.03;21.83;;;;;;;;;;5013812;28;20609;-69
2022/03/10 06:52:02;;;;;;;38.07;20.63;;;;;;;;;;5013846;28;20033;-67
2022/03/10 06:54:28;;;;;;;47.30;21.80;;;;;;;;;;5013669;28;20065;-68
2022/03/10 06:56:54;;;;;;;41.73;23.33;;;;;;;;;;5013851;28;20038;-67
2022/03/10 06:59:20;;;;;;;41.90;22.97;;;;;;;;;;5013869;28;20088;-67
2022/03/10 07:01:46;;;;;;;48.47;22.87;;;;;;;;;;5013686;28;20038;-67
2022/03/10 07:04:13;;;;;;;41.20;22.63;;;;;;;;;;5011575;28;20038;-67
2022/03/10 07:06:39;;;;;;;40.40;20.27;;;;;;;;;;5013144;28;20137;-68
2022/03/10 07:09:05;;;;;;;44.33;20.67;;;;;;;;;;5013070;28;20101;-67
2022/03/10 07:11:31;;;;;;;40.07;18.63;;;;;;;;;;5012537;28;20099;-67
2022/03/10 07:13:57;;;;;;;36.80;16.47;;;;;;;;;;5013612;28;20028;-67
2022/03/10 07:16:23;;;;;;;39.00;16.17;;;;;;;;;;5013335;28;20038;-67
2022/03/10 07:18:52;;;;;;;32.07;16.37;;;;;;;;;;5013804;28;20061;-67
2022/03/10 07:21:19;;;;;;;27.77;15.37;;;;;;;;;;5013713;28;20033;-67
2022/03/10 07:23:47;;;;;;;26.53;15.47;;;;;;;;;;5013715;28;20061;-67
2022/03/10 07:26:13;;;;;;;25.50;15.20;;;;;;;;;;5013608;28;20041;-67
2022/03/10 07:28:40;;;;;;;30.03;15.47;;;;;;;;;;5013387;28;20410;-67
2022/03/10 07:31:06;;;;;;;36.67;15.43;;;;;;;;;;5013127;28;20076;-67
2022/03/10 07:33:32;;;;;;;34.37;15.50;;;;;;;;;;5012683;28;20381;-70
2022/03/10 07:35:58;;;;;;;26.93;14.93;;;;;;;;;;5012666;28;20037;-70
2022/03/10 07:38:24;;;;;;;30.13;15.77;;;;;;;;;;5012922;28;20042;-70
2022/03/10 07:40:51;;;;;;;27.13;17.50;;;;;;;;;;5013036;28;20038;-70
2022/03/10 07:43:17;;;;;;;37.00;17.40;;;;;;;;;;5013128;28;20157;-70
2022/03/10 07:45:44;;;;;;;28.17;17.30;;;;;;;;;;5013183;28;20037;-69
2022/03/10 07:48:10;;;;;;;27.00;16.83;;;;;;;;;;5013302;28;20049;-71
2022/03/10 07:50:36;;;;;;;38.33;15.67;;;;;;;;;;5012231;28;20078;-72
2022/03/10 07:53:02;;;;;;;34.47;15.67;;;;;;;;;;5013301;28;20030;-71
2022/03/10 07:55:28;;;;;;;34.17;16.80;;;;;;;;;;5013110;28;20522;-72
2022/03/10 07:57:54;;;;;;;29.23;17.87;;;;;;;;;;5013053;28;20030;-70
2022/03/10 08:00:20;;;;;;;34.67;18.37;;;;;;;;;;5012280;28;20049;-71
2022/03/10 08:02:47;;;;;;;39.27;17.60;;;;;;;;;;5010685;28;20034;-69
2022/03/10 08:05:13;;;;;;;36.77;18.17;;;;;;;;;;5012917;28;20425;-69
2022/03/10 08:07:39;;;;;;;34.80;17.47;;;;;;;;;;5013132;28;20045;-70
2022/03/10 08:10:06;;;;;;;33.57;16.57;;;;;;;;;;5012961;28;20478;-69
2022/03/10 08:12:33;;;;;;;41.47;18.60;;;;;;;;;;5012705;28;20509;-69
2022/03/10 08:15:00;;;;;;;36.20;18.40;;;;;;;;;;5012715;28;20038;-70
2022/03/10 08:17:26;;;;;;;38.03;19.87;;;;;;;;;;5012637;28;20040;-69
2022/03/10 08:19:53;;;;;;;38.67;18.60;;;;;;;;;;5012108;28;20069;-69
2022/03/10 08:22:20;;;;;;;44.47;19.30;;;;;;;;;;5012135;28;20038;-69
2022/03/10 08:24:46;;;;;;;37.00;19.10;;;;;;;;;;5012080;28;20065;-69
2022/03/10 08:27:13;;;;;;;35.97;17.47;;;;;;;;;;5012590;28;20553;-70
2022/03/10 08:29:39;;;;;;;39.63;18.53;;;;;;;;;;5012282;28;20034;-70
2022/03/10 08:32:06;;;;;;;35.27;16.70;;;;;;;;;;5012690;28;20033;-70
2022/03/10 08:34:32;;;;;;;32.37;16.57;;;;;;;;;;5012269;28;20077;-69
2022/03/10 08:36:58;;;;;;;35.27;15.80;;;;;;;;;;5012660;28;20398;-72
2022/03/10 08:39:24;;;;;;;28.40;17.23;;;;;;;;;;4994950;28;20041;-70
2022/03/10 08:41:51;;;;;;;32.43;16.33;;;;;;;;;;5011479;28;20030;-71
2022/03/10 08:44:19;;;;;;;35.97;16.30;;;;;;;;;;5009200;28;20042;-72
2022/03/10 08:46:45;;;;;;;49.50;16.80;;;;;;;;;;5001375;28;20042;-70
2022/03/10 08:49:13;;;;;;;33.87;15.97;;;;;;;;;;5003294;28;20037;-70
2022/03/10 08:51:39;;;;;;;27.83;15.50;;;;;;;;;;5003880;28;20482;-72
2022/03/10 08:54:06;;;;;;;22.70;13.50;;;;;;;;;;5001515;28;20033;-73
2022/03/10 08:56:32;;;;;;;35.97;15.27;;;;;;;;;;5002955;28;20049;-73
2022/03/10 08:58:58;;;;;;;34.13;15.80;;;;;;;;;;5003490;28;20031;-70
2022/03/10 09:01:24;;;;;;;30.73;15.60;;;;;;;;;;5001282;28;20109;-72
2022/03/10 09:03:50;;;;;;;32.93;15.93;;;;;;;;;;5003061;28;20410;-71
2022/03/10 09:06:16;;;;;;;33.17;16.23;;;;;;;;;;5001485;28;20035;-70
2022/03/10 09:08:45;;;;;;;28.47;15.60;;;;;;;;;;5001861;28;20081;-71
2022/03/10 09:11:11;;;;;;;24.53;13.67;;;;;;;;;;5011136;28;20042;-70
2022/03/10 09:13:37;;;;;;;25.57;12.77;;;;;;;;;;5011010;28;20029;-70
2022/03/10 09:16:04;;;;;;;29.50;12.43;;;;;;;;;;5014922;28;20026;-70
2022/03/10 09:18:30;;;;;;;22.70;13.23;;;;;;;;;;5015532;28;20030;-69
2022/03/10 09:20:56;;;;;;;19.93;12.07;;;;;;;;;;5015776;28;20038;-71
2022/03/10 09:23:22;;;;;;;21.30;12.60;;;;;;;;;;5000116;28;20038;-69
2022/03/10 09:25:48;;;;;;;24.50;12.77;;;;;;;;;;4995699;28;20034;-69
2022/03/10 09:28:14;;;;;;;27.40;12.70;;;;;;;;;;4995943;28;20043;-71
2022/03/10 09:30:40;;;;;;;18.53;12.20;;;;;;;;;;4996087;28;20035;-69
2022/03/10 09:33:06;;;;;;;22.43;14.27;;;;;;;;;;4996222;28;20034;-69
2022/03/10 09:35:32;;;;;;;23.50;14.87;;;;;;;;;;4996313;28;20125;-69
2022/03/10 09:37:58;;;;;;;27.23;14.50;;;;;;;;;;4996023;28;20080;-69
2022/03/10 09:40:24;;;;;;;26.53;15.20;;;;;;;;;;4994988;28;20497;-70
2022/03/10 09:42:50;;;;;;;28.87;15.80;;;;;;;;;;4995364;28;20376;-69
2022/03/10 09:45:18;;;;;;;33.20;15.20;;;;;;;;;;4995081;28;20046;-70
2022/03/10 09:47:44;;;;;;;32.37;16.47;;;;;;;;;;4995611;28;20053;-72
2022/03/10 09:50:17;;;;;;;27.30;15.70;;;;;;;;;;4995785;28;20085;-72
2022/03/10 09:52:44;;;;;;;27.83;16.03;;;;;;;;;;4995795;28;20061;-73
2022/03/10 09:55:10;;;;;;;24.90;15.17;;;;;;;;;;4995641;28;20534;-73
2022/03/10 09:57:38;;;;;;;27.53;17.20;;;;;;;;;;4995718;28;20067;-73
2022/03/10 10:00:05;;;;;;;25.67;16.10;;;;;;;;;;4995826;28;20243;-73
2022/03/10 10:02:31;;;;;;;20.90;14.83;;;;;;;;;;4995592;28;20121;-73
2022/03/10 10:04:57;;;;;;;27.47;15.43;;;;;;;;;;4995368;28;20035;-73
2022/03/10 10:07:29;;;;;;;24.40;15.80;;;;;;;;;;4995348;28;20443;-73
2022/03/10 10:09:57;;;;;;;27.05;15.45;;;;;;;;;;4977914;28;20490;-73
2022/03/10 10:12:32;;;;;;;20.60;13.47;;;;;;;;;;4995488;28;20065;-73
2022/03/10 10:15:00;;;;;;;22.05;14.00;;;;;;;;;;4995649;28;20040;-72
2022/03/10 10:17:30;;;;;;;27.77;15.60;;;;;;;;;;4995435;28;20034;-75
2022/03/10 10:19:57;;;;;;;21.98;14.27;;;;;;;;;;4995596;28;20030;-73
2022/03/10 10:22:24;;;;;;;25.65;15.55;;;;;;;;;;4995105;28;20398;-73
2022/03/10 10:24:50;;;;;;;24.60;15.30;;;;;;;;;;4995252;28;20443;-72
2022/03/10 10:27:21;;;;;;;28.08;15.27;;;;;;;;;;4994842;28;20053;-72
2022/03/10 10:29:51;;;;;;;23.02;14.65;;;;;;;;;;4995517;28;20037;-73
2022/03/10 10:32:35;;;;;;;23.65;14.82;;;;;;;;;;4995248;28;20034;-72
2022/03/10 10:35:03;;;;;;;21.73;14.23;;;;;;;;;;4995324;28;20093;-72
2022/03/10 10:37:29;;;;;;;24.63;14.85;;;;;;;;;;4994999;28;20459;-72
2022/03/10 10:39:59;;;;;;;22.10;14.55;;;;;;;;;;4994890;28;20038;-73
2022/03/10 10:42:33;;;;;;;20.42;13.13;;;;;;;;;;4994500;28;20058;-73
2022/03/10 10:45:00;;;;;;;21.55;13.38;;;;;;;;;;4994767;28;20065;-73
2022/03/10 10:47:29;;;;;;;21.15;13.75;;;;;;;;;;4994087;28;20042;-73
2022/03/10 10:50:04;;;;;;;22.17;13.80;;;;;;;;;;4994033;28;20044;-73
2022/03/10 10:52:40;;;;;;;23.92;16.00;;;;;;;;;;4993706;28;20032;-72
2022/03/10 10:55:07;;;;;;;23.70;14.77;;;;;;;;;;4994862;28;20034;-73
2022/03/10 10:57:34;;;;;;;23.95;14.05;;;;;;;;;;4994662;28;20045;-73
2022/03/10 11:00:14;;;;;;;22.52;15.85;;;;;;;;;;4994460;28;20034;-73
2022/03/10 11:02:44;;;;;;;27.98;16.90;;;;;;;;;;4994115;28;20035;-73
2022/03/10 11:05:12;;;;;;;23.00;14.43;;;;;;;;;;4993931;28;20061;-73
2022/03/10 11:07:42;;;;;;;23.88;14.68;;;;;;;;;;4993958;28;20137;-73
2022/03/10 11:10:12;;;;;;;19.10;13.65;;;;;;;;;;4993883;28;20046;-73
2022/03/10 11:12:41;;;;;;;25.45;16.20;;;;;;;;;;4993530;28;20042;-73
2022/03/10 11:15:08;;;;;;;27.85;17.92;;;;;;;;;;4993743;28;20058;-73
2022/03/10 11:17:35;;;;;;;25.98;15.57;;;;;;;;;;4993943;28;20041;-73
2022/03/10 11:20:02;;;;;;;25.83;15.77;;;;;;;;;;4993772;28;20105;-75
2022/03/10 11:22:48;;;;;;;23.77;16.15;;;;;;;;;;4993649;28;20105;-80
2022/03/10 11:25:18;;;;;;;30.40;19.42;;;;;;;;;;4993495;28;20042;-73
2022/03/10 11:28:16;;;;;;;31.13;21.05;;;;;;;;;;4993876;28;20077;-75
2022/03/10 11:30:48;;;;;;;31.08;18.95;;;;;;;;;;4960715;28;20034;-72
2022/03/10 11:33:18;;;;;;;30.10;20.38;;;;;;;;;;4993397;28;20046;-73
2022/03/10 11:35:45;;;;;;;33.72;22.45;;;;;;;;;;4993709;28;20090;-72
2022/03/10 11:38:12;;;;;;;37.33;21.00;;;;;;;;;;4992703;28;20038;-73
2022/03/10 11:40:42;;;;;;;29.55;18.77;;;;;;;;;;4975797;28;20499;-73
2022/03/10 11:43:08;;;;;;;29.02;20.38;;;;;;;;;;4993375;28;20065;-76
2022/03/10 11:45:34;;;;;;;35.85;20.80;;;;;;;;;;4993458;28;20053;-77
2022/03/10 11:48:19;;;;;;;33.92;22.05;;;;;;;;;;4993172;28;20050;-76
2022/03/10 11:50:45;;;;;;;34.17;21.30;;;;;;;;;;4993525;28;20349;-72
2022/03/10 11:53:14;;;;;;;31.77;21.15;;;;;;;;;;4993149;28;20128;-73
2022/03/10 11:55:55;;;;;;;31.40;20.10;;;;;;;;;;4976038;28;20483;-72
2022/03/10 11:58:34;;;;;;;32.28;19.70;;;;;;;;;;4993274;28;20030;-72
2022/03/10 12:01:00;;;;;;;32.58;20.25;;;;;;;;;;4993597;28;20030;-72
2022/03/10 12:03:30;;;;;;;29.58;19.50;;;;;;;;;;4993529;28;20045;-72
2022/03/10 12:06:03;;;;;;;32.58;20.55;;;;;;;;;;4991026;28;20505;-72
2022/03/10 12:08:29;;;;;;;;;;;;;;;;;;5000212;28;20042;-73
2022/03/10 12:10:56;;;;;;;30.58;18.92;;;;;;;;;;5002110;28;19924;-73
2022/03/10 12:13:39;;;;;;;31.77;18.67;;;;;;;;;;5000760;28;20039;-72
2022/03/10 12:16:06;;;;;;;28.45;18.65;;;;;;;;;;5008720;28;20030;-72
2022/03/10 12:18:41;;;;;;;29.17;18.88;;;;;;;;;;5011346;28;20038;-72
2022/03/10 12:21:36;;;;;;;30.25;19.15;;;;;;;;;;5011786;28;20041;-75
2022/03/10 12:24:05;;;;;;;27.02;17.60;;;;;;;;;;5003033;28;20037;-70
2022/03/10 12:26:33;;;;;;;27.05;17.65;;;;;;;;;;5011169;28;20045;-72
2022/03/10 12:29:00;;;;;;;31.05;19.17;;;;;;;;;;5011323;28;20033;-73
2022/03/10 12:31:32;;;;;;;28.15;19.63;;;;;;;;;;5011556;28;20042;-73
2022/03/10 12:34:02;;;;;;;27.40;16.90;;;;;;;;;;5011667;28;20473;-72
2022/03/10 12:36:30;;;;;;;26.25;17.63;;;;;;;;;;5011461;28;20038;-72
2022/03/10 12:38:57;;;;;;;26.08;17.15;;;;;;;;;;5011589;28;20034;-74
2022/03/10 12:41:36;;;;;;;24.52;17.00;;;;;;;;;;5005709;28;20038;-72
2022/03/10 12:44:03;;;;;;;25.17;16.17;;;;;;;;;;4991805;28;20113;-71
2022/03/10 12:46:29;;;;;;;25.20;15.75;;;;;;;;;;5001925;28;20027;-73
2022/03/10 12:48:58;;;;;;;31.45;17.70;;;;;;;;;;4992788;28;20387;-74
2022/03/10 12:51:29;;;;;;;23.80;16.02;;;;;;;;;;5014861;28;20041;-71
2022/03/10 12:53:55;;;;;;;22.30;14.15;;;;;;;;;;5014778;28;20109;-72
2022/03/10 12:56:21;;;;;;;23.35;16.40;;;;;;;;;;5014705;28;20038;-71
2022/03/10 12:58:48;;;;;;;24.17;17.35;;;;;;;;;;5014807;28;20053;-71
2022/03/10 13:01:15;;;;;;;24.52;16.92;;;;;;;;;;5014655;28;20042;-71
2022/03/10 13:03:51;;;;;;;25.45;17.45;;;;;;;;;;5014313;28;20494;-72
2022/03/10 13:06:18;;;;;;;24.60;17.23;;;;;;;;;;5013905;28;20045;-75
2022/03/10 13:08:49;;;;;;;27.65;18.55;;;;;;;;;;5014370;28;20057;-70
2022/03/10 13:11:19;;;;;;;31.33;19.40;;;;;;;;;;5014603;28;20045;-71
2022/03/10 13:13:45;;;;;;;31.35;17.67;;;;;;;;;;5014961;28;20113;-73
2022/03/10 13:16:11;;;;;;;31.45;21.15;;;;;;;;;;5014937;28;20591;-73
2022/03/10 13:18:41;;;;;;;28.75;19.60;;;;;;;;;;5014444;28;20050;-73
2022/03/10 13:21:07;;;;;;;30.05;18.65;;;;;;;;;;5004612;28;20058;-75
2022/03/10 13:23:33;;;;;;;24.52;17.63;;;;;;;;;;5005902;28;20039;-71
2022/03/10 13:25:59;;;;;;;32.17;19.35;;;;;;;;;;5004519;28;20459;-74
2022/03/10 13:28:25;;;;;;;35.70;23.60;;;;;;;;;;5004003;28;20026;-71
2022/03/10 13:30:52;;;;;;;37.63;22.10;;;;;;;;;;5006231;28;20050;-71
2022/03/10 13:33:18;;;;;;;33.50;21.55;;;;;;;;;;5012082;28;20030;-72
2022/03/10 13:35:50;;;;;;;31.60;22.33;;;;;;;;;;5014477;28;20041;-72
2022/03/10 13:38:18;;;;;;;38.28;22.13;;;;;;;;;;5014017;28;20096;-72
2022/03/10 13:40:44;;;;;;;37.95;24.88;;;;;;;;;;5013807;28;20038;-74